Startpagina
METAR-TAF:

METAR-TAF

Vliegvelden :

Zielona Góra, Polen

breedte: 52-08-19N, lengte: 015-47-55E, hoogte: 59 m

Actueel weer

Dit bericht is 12 minuten geleden gemaakt, om 19:00 UTC
Weinig wind
Temperatuur 24°C
Vochtigheid 83%
Druk 1006 hPa
Zicht 10 km of meer
geen wolken onder 1500 m en geen cumulonimbus

METAR: EPZG 211900Z 00000KT CAVOK 24/21 Q1006

Tijdstip: 21:12 (19:12 UTC)

Verwachting

Dit bericht is 1 uur en het 42 minuten geleden gemaakt, om 17:30 UTC
Verwachting geldig van 21 om 18 UTC tot 22 om 03 UTC
Wind 2 kt uit variabele richting
Zicht 10 km of meer
geen wolken onder 1500 m en geen cumulonimbus
Kans 30% :
Tijdelijke
van 21 om 18 UTC tot 21 om 21 UTC
Verspreide wolken op 4000 ft, Cumulonimbus.

TAF: EPZG 211730Z 2118/2203 VRB02KT CAVOK PROB30 TEMPO 2118/2121 SCT040CB

Waarnemingen en weersverwachtingen van meer dan 4000 vliegvelden (METAR en TAF).

De beschikbare stations zijn de gele en rode punten op de kaart.

Ga met uw muis naar het station om de naam te zien.

Klik dan om waarnemingen en weersverwachtingen te zien.

kaart wijzigen: klik op de groene knoppen met een zwart kruis om in te zoomen, op de groene knop met een streepje om uit te zoomen of op de groene pijlen voor aangrenzende kaarten.


METAR-TAF: